Terminal Aerodrome Forecast
Issued by NWS

Home | Current Version | Previous Version | Text Only | Print | Product List | Glossary On
Versions: 1 2 3 4 5 6 7 8 9 10 11 12 13 14 15
931
FTUS43 KFGF 120209 AAA
TAFTVF
TAF AMD
KTVF 120209Z 1202/1224 31010KT P6SM BKN040
     FM120400 32010KT P6SM SCT050
     FM120900 33013G18KT P6SM FEW200
     FM122300 32012KT P6SM FEW200=

USA.gov is the U.S. government's official web portal to all federal, state and local government web resources and services.